Treviso / Sant'Angelo Airport LIPH

Flugplatz Daten

Name: Treviso / Sant'Angelo Airport

Ident: LIPH

Lat: 45,64839935

Long: 12,19439983

Platzhöhe: 59 ft

IataCode: TSF

City: Treviso

Homepage: http://www.trevisoairport.it/tsf/index.jsp?_requestid=677517&language=en

Metar

2021/08/05 14:50
LIPH 051450Z VRB03KT 9999 FEW050 29/16 Q1004

Taf

2021/08/05 12:26
TAF LIPH 051100Z 0512/0612 24007KT CAVOK
BECMG 0515/0517 16010KT
BECMG 0519/0521 03007KT
TEMPO 0519/0524 4000 TSRA
Gewünschte Webcam nicht vorhanden? Dann fügen Sie eine hinzu. Sie wird dann so schnell wie möglich freigeschaltet
Url: Title: